Alcobendas, Spain
Current Conditions -  °F | °C
As of 9:00 PM on Thursday 23 Oct 2014 (Local Time) from LEMD Reporting Station
Clear Clear  
Wind Chill: 68°   Ceiling: Unl
Heat Index: 68°   Visibility: 6mi
Dew Point: 43°   Wind: 7mph
Humidity: 40%   Direction: 340°NNW
Pressure: 30.18"   Gusts: NA
Location:  40.55°N, 3.64°W
Report Text: LEMD 231900Z 34006KT CAVOK 20/06 Q1022 NOSIG
Loading
Personal Weather Stations






























Interactive Weather Map New forecast layout! Learn more

10-Day Weather Forecast

Advertisements
Track Severe Weather on mobile